sensor_id;sensor_type;location;lat;lon;timestamp;pressure;altitude;pressure_sealevel;temperature;humidity
45621;BME280;31345;51.522;10.702;2023-03-25T00:02:02;97885.31;;;8.43;100.00
45621;BME280;31345;51.522;10.702;2023-03-25T00:04:35;97886.03;;;8.34;100.00
45621;BME280;31345;51.522;10.702;2023-03-25T00:07:04;97878.13;;;8.36;100.00
45621;BME280;31345;51.522;10.702;2023-03-25T00:09:33;97873.97;;;8.33;100.00
45621;BME280;31345;51.522;10.702;2023-03-25T00:12:06;97860.00;;;8.45;100.00
45621;BME280;31345;51.522;10.702;2023-03-25T00:14:34;97855.25;;;8.39;100.00
45621;BME280;31345;51.522;10.702;2023-03-25T00:17:07;97851.97;;;8.37;100.00
45621;BME280;31345;51.522;10.702;2023-03-25T00:19:35;97862.38;;;8.37;100.00
45621;BME280;31345;51.522;10.702;2023-03-25T00:22:08;97864.47;;;8.32;100.00
45621;BME280;31345;51.522;10.702;2023-03-25T00:24:42;97864.47;;;8.32;100.00
45621;BME280;31345;51.522;10.702;2023-03-25T00:27:14;97865.66;;;8.28;100.00
45621;BME280;31345;51.522;10.702;2023-03-25T00:29:44;97867.47;;;8.27;100.00
45621;BME280;31345;51.522;10.702;2023-03-25T00:32:17;97865.06;;;8.13;100.00
45621;BME280;31345;51.522;10.702;2023-03-25T00:34:46;97862.91;;;8.06;100.00
45621;BME280;31345;51.522;10.702;2023-03-25T00:37:14;97859.59;;;8.04;100.00
45621;BME280;31345;51.522;10.702;2023-03-25T00:39:50;97864.19;;;8.01;100.00
45621;BME280;31345;51.522;10.702;2023-03-25T00:42:22;97853.09;;;7.99;100.00
45621;BME280;31345;51.522;10.702;2023-03-25T00:44:53;97847.53;;;7.92;100.00
45621;BME280;31345;51.522;10.702;2023-03-25T00:47:27;97847.41;;;7.93;100.00
45621;BME280;31345;51.522;10.702;2023-03-25T00:49:59;97847.16;;;7.97;100.00
45621;BME280;31345;51.522;10.702;2023-03-25T00:52:29;97841.38;;;8.04;100.00
45621;BME280;31345;51.522;10.702;2023-03-25T00:55:03;97833.56;;;8.04;100.00
45621;BME280;31345;51.522;10.702;2023-03-25T00:57:36;97828.47;;;8.03;100.00
45621;BME280;31345;51.522;10.702;2023-03-25T01:00:04;97820.69;;;8.03;100.00
45621;BME280;31345;51.522;10.702;2023-03-25T01:02:40;97821.63;;;8.02;100.00
45621;BME280;31345;51.522;10.702;2023-03-25T01:05:15;97820.34;;;8.07;100.00
45621;BME280;31345;51.522;10.702;2023-03-25T01:07:46;97815.13;;;8.07;100.00
45621;BME280;31345;51.522;10.702;2023-03-25T01:10:18;97828.03;;;8.09;100.00
45621;BME280;31345;51.522;10.702;2023-03-25T01:12:51;97830.03;;;8.05;100.00
45621;BME280;31345;51.522;10.702;2023-03-25T01:15:19;97830.50;;;7.99;100.00
45621;BME280;31345;51.522;10.702;2023-03-25T01:17:51;97825.03;;;8.02;100.00
45621;BME280;31345;51.522;10.702;2023-03-25T01:20:19;97814.28;;;8.07;100.00
45621;BME280;31345;51.522;10.702;2023-03-25T01:22:52;97821.00;;;7.98;100.00
45621;BME280;31345;51.522;10.702;2023-03-25T01:25:25;97812.03;;;8.02;100.00
45621;BME280;31345;51.522;10.702;2023-03-25T01:27:53;97807.66;;;8.03;100.00
45621;BME280;31345;51.522;10.702;2023-03-25T01:30:20;97808.63;;;8.02;100.00
45621;BME280;31345;51.522;10.702;2023-03-25T01:32:53;97802.22;;;8.06;100.00
45621;BME280;31345;51.522;10.702;2023-03-25T01:35:21;97807.19;;;7.98;100.00
45621;BME280;31345;51.522;10.702;2023-03-25T01:37:53;97812.50;;;7.96;100.00
45621;BME280;31345;51.522;10.702;2023-03-25T01:40:27;97812.25;;;7.88;100.00
45621;BME280;31345;51.522;10.702;2023-03-25T01:42:55;97826.19;;;7.87;100.00
45621;BME280;31345;51.522;10.702;2023-03-25T01:45:29;97820.41;;;7.83;100.00
45621;BME280;31345;51.522;10.702;2023-03-25T01:48:06;97814.25;;;7.84;100.00
45621;BME280;31345;51.522;10.702;2023-03-25T01:50:43;97807.97;;;7.75;100.00
45621;BME280;31345;51.522;10.702;2023-03-25T01:53:16;97814.34;;;7.60;100.00
45621;BME280;31345;51.522;10.702;2023-03-25T01:55:45;97820.03;;;7.76;100.00
45621;BME280;31345;51.522;10.702;2023-03-25T01:58:16;97816.38;;;7.79;100.00
45621;BME280;31345;51.522;10.702;2023-03-25T02:00:50;97814.63;;;7.79;100.00
45621;BME280;31345;51.522;10.702;2023-03-25T02:03:23;97817.22;;;7.79;100.00
45621;BME280;31345;51.522;10.702;2023-03-25T02:06:00;97812.72;;;7.93;100.00
45621;BME280;31345;51.522;10.702;2023-03-25T02:08:37;97817.94;;;7.93;100.00
45621;BME280;31345;51.522;10.702;2023-03-25T02:11:09;97811.34;;;8.00;100.00
45621;BME280;31345;51.522;10.702;2023-03-25T02:13:42;97813.22;;;7.98;100.00
45621;BME280;31345;51.522;10.702;2023-03-25T02:16:25;97796.53;;;8.01;100.00
45621;BME280;31345;51.522;10.702;2023-03-25T02:19:10;97810.50;;;8.00;100.00
45621;BME280;31345;51.522;10.702;2023-03-25T02:22:12;97801.63;;;8.02;100.00
45621;BME280;31345;51.522;10.702;2023-03-25T02:25:22;97802.22;;;8.06;100.00
45621;BME280;31345;51.522;10.702;2023-03-25T02:28:08;97807.56;;;8.04;100.00
45621;BME280;31345;51.522;10.702;2023-03-25T02:31:07;97808.97;;;8.08;100.00
45621;BME280;31345;51.522;10.702;2023-03-25T02:34:05;97803.66;;;8.21;100.00
45621;BME280;31345;51.522;10.702;2023-03-25T02:37:16;97803.78;;;8.20;100.00
45621;BME280;31345;51.522;10.702;2023-03-25T02:39:54;97804.72;;;8.19;100.00
45621;BME280;31345;51.522;10.702;2023-03-25T02:42:33;97805.41;;;8.21;100.00
45621;BME280;31345;51.522;10.702;2023-03-25T02:45:13;97808.50;;;8.26;100.00
45621;BME280;31345;51.522;10.702;2023-03-25T02:47:48;97797.50;;;8.23;100.00
45621;BME280;31345;51.522;10.702;2023-03-25T02:50:25;97803.91;;;8.30;100.00
45621;BME280;31345;51.522;10.702;2023-03-25T02:52:57;97803.66;;;8.33;100.00
45621;BME280;31345;51.522;10.702;2023-03-25T02:55:33;97800.56;;;8.28;100.00
45621;BME280;31345;51.522;10.702;2023-03-25T02:58:10;97808.97;;;8.31;100.00
45621;BME280;31345;51.522;10.702;2023-03-25T03:00:45;97801.63;;;8.25;100.00
45621;BME280;31345;51.522;10.702;2023-03-25T03:03:12;97794.78;;;8.24;100.00
45621;BME280;31345;51.522;10.702;2023-03-25T03:05:42;97782.34;;;8.28;100.00
45621;BME280;31345;51.522;10.702;2023-03-25T03:08:22;97792.06;;;8.26;100.00
45621;BME280;31345;51.522;10.702;2023-03-25T03:11:01;97780.22;;;8.21;100.00
45621;BME280;31345;51.522;10.702;2023-03-25T03:13:47;97784.13;;;8.27;100.00
45621;BME280;31345;51.522;10.702;2023-03-25T03:16:31;97779.16;;;8.24;100.00
45621;BME280;31345;51.522;10.702;2023-03-25T03:19:07;97781.53;;;8.27;100.00
45621;BME280;31345;51.522;10.702;2023-03-25T03:21:52;97784.13;;;8.27;100.00
45621;BME280;31345;51.522;10.702;2023-03-25T03:24:30;97784.94;;;8.28;100.00
45621;BME280;31345;51.522;10.702;2023-03-25T03:27:08;97778.66;;;8.30;100.00
45621;BME280;31345;51.522;10.702;2023-03-25T03:29:47;97777.97;;;8.28;100.00
45621;BME280;31345;51.522;10.702;2023-03-25T03:32:28;97779.72;;;8.28;100.00
45621;BME280;31345;51.522;10.702;2023-03-25T03:35:02;97770.03;;;8.30;100.00
45621;BME280;31345;51.522;10.702;2023-03-25T03:37:34;97777.84;;;8.30;100.00
45621;BME280;31345;51.522;10.702;2023-03-25T03:40:06;97786.34;;;8.32;100.00
45621;BME280;31345;51.522;10.702;2023-03-25T03:42:43;97778.66;;;8.30;100.00
45621;BME280;31345;51.522;10.702;2023-03-25T03:45:20;97785.28;;;8.34;100.00
45621;BME280;31345;51.522;10.702;2023-03-25T03:47:56;97777.00;;;8.29;100.00
45621;BME280;31345;51.522;10.702;2023-03-25T03:50:35;97782.00;;;8.32;100.00
45621;BME280;31345;51.522;10.702;2023-03-25T03:53:07;97783.75;;;8.32;100.00
45621;BME280;31345;51.522;10.702;2023-03-25T03:55:40;97792.41;;;8.32;100.00
45621;BME280;31345;51.522;10.702;2023-03-25T03:58:13;97788.63;;;8.37;100.00
45621;BME280;31345;51.522;10.702;2023-03-25T04:00:50;97777.72;;;8.31;100.00
45621;BME280;31345;51.522;10.702;2023-03-25T04:03:21;97793.81;;;8.25;100.00
45621;BME280;31345;51.522;10.702;2023-03-25T04:06:00;97780.47;;;8.18;100.00
45621;BME280;31345;51.522;10.702;2023-03-25T04:08:36;97776.78;;;8.10;100.00
45621;BME280;31345;51.522;10.702;2023-03-25T04:11:18;97787.31;;;8.08;100.00
45621;BME280;31345;51.522;10.702;2023-03-25T04:13:56;97788.50;;;8.04;100.00
45621;BME280;31345;51.522;10.702;2023-03-25T04:16:25;97783.50;;;8.01;100.00
45621;BME280;31345;51.522;10.702;2023-03-25T04:18:58;97793.56;;;7.94;100.00
45621;BME280;31345;51.522;10.702;2023-03-25T04:21:31;97799.59;;;7.94;100.00
45621;BME280;31345;51.522;10.702;2023-03-25T04:24:04;97805.88;;;7.92;100.00
45621;BME280;31345;51.522;10.702;2023-03-25T04:26:38;97810.13;;;7.93;100.00
45621;BME280;31345;51.522;10.702;2023-03-25T04:29:14;97814.38;;;7.94;100.00
45621;BME280;31345;51.522;10.702;2023-03-25T04:31:59;97815.13;;;7.96;100.00
45621;BME280;31345;51.522;10.702;2023-03-25T04:34:32;97820.88;;;7.88;100.00
45621;BME280;31345;51.522;10.702;2023-03-25T04:37:00;97832.34;;;7.86;100.00
45621;BME280;31345;51.522;10.702;2023-03-25T04:39:33;97825.28;;;7.88;100.00
45621;BME280;31345;51.522;10.702;2023-03-25T04:42:00;97822.06;;;7.95;100.00
45621;BME280;31345;51.522;10.702;2023-03-25T04:44:28;97828.13;;;7.96;100.00
45621;BME280;31345;51.522;10.702;2023-03-25T04:47:01;97818.41;;;7.98;100.00
45621;BME280;31345;51.522;10.702;2023-03-25T04:49:33;97824.69;;;7.95;100.00
45621;BME280;31345;51.522;10.702;2023-03-25T04:52:01;97817.94;;;7.93;100.00
45621;BME280;31345;51.522;10.702;2023-03-25T04:54:34;97819.25;;;7.99;100.00
45621;BME280;31345;51.522;10.702;2023-03-25T04:57:08;97827.66;;;8.02;100.00
45621;BME280;31345;51.522;10.702;2023-03-25T04:59:41;97820.91;;;8.00;100.00
45621;BME280;31345;51.522;10.702;2023-03-25T05:02:15;97830.34;;;8.01;100.00
45621;BME280;31345;51.522;10.702;2023-03-25T05:04:43;97822.19;;;7.94;100.00
45621;BME280;31345;51.522;10.702;2023-03-25T05:07:12;97812.72;;;7.93;100.00
45621;BME280;31345;51.522;10.702;2023-03-25T05:09:46;97823.25;;;7.91;100.00
45621;BME280;31345;51.522;10.702;2023-03-25T05:12:18;97822.19;;;7.94;100.00
45621;BME280;31345;51.522;10.702;2023-03-25T05:14:51;97816.41;;;7.90;100.00
45621;BME280;31345;51.522;10.702;2023-03-25T05:17:25;97821.84;;;7.87;100.00
45621;BME280;31345;51.522;10.702;2023-03-25T05:19:54;97805.53;;;7.85;100.00
45621;BME280;31345;51.522;10.702;2023-03-25T05:22:27;97812.81;;;7.80;100.00
45621;BME280;31345;51.522;10.702;2023-03-25T05:24:55;97816.75;;;7.86;100.00
45621;BME280;31345;51.522;10.702;2023-03-25T05:27:28;97828.56;;;7.90;100.00
45621;BME280;31345;51.522;10.702;2023-03-25T05:29:56;97826.94;;;7.89;100.00
45621;BME280;31345;51.522;10.702;2023-03-25T05:32:27;97838.28;;;7.88;100.00
45621;BME280;31345;51.522;10.702;2023-03-25T05:34:58;97831.91;;;7.92;100.00
45621;BME280;31345;51.522;10.702;2023-03-25T05:37:30;97830.00;;;7.94;100.00
45621;BME280;31345;51.522;10.702;2023-03-25T05:40:04;97820.78;;;7.90;100.00
45621;BME280;31345;51.522;10.702;2023-03-25T05:42:32;97823.03;;;7.94;100.00
45621;BME280;31345;51.522;10.702;2023-03-25T05:45:06;97838.16;;;7.89;100.00
45621;BME280;31345;51.522;10.702;2023-03-25T05:47:41;97849.41;;;7.90;100.00
45621;BME280;31345;51.522;10.702;2023-03-25T05:50:14;97844.91;;;7.92;100.00
45621;BME280;31345;51.522;10.702;2023-03-25T05:52:42;97842.44;;;7.90;100.00
45621;BME280;31345;51.522;10.702;2023-03-25T05:55:11;97851.66;;;7.94;100.00
45621;BME280;31345;51.522;10.702;2023-03-25T05:57:45;97853.69;;;7.91;100.00
45621;BME280;31345;51.522;10.702;2023-03-25T06:00:15;97859.34;;;7.96;100.00
45621;BME280;31345;51.522;10.702;2023-03-25T06:02:50;97866.44;;;7.94;100.00
45621;BME280;31345;51.522;10.702;2023-03-25T06:05:23;97870.47;;;7.98;100.00
45621;BME280;31345;51.522;10.702;2023-03-25T06:07:56;97872.97;;;8.00;100.00
45621;BME280;31345;51.522;10.702;2023-03-25T06:10:23;97864.94;;;8.03;100.00
45621;BME280;31345;51.522;10.702;2023-03-25T06:12:56;97869.41;;;8.01;100.00
45621;BME280;31345;51.522;10.702;2023-03-25T06:15:23;97868.69;;;7.99;100.00
45621;BME280;31345;51.522;10.702;2023-03-25T06:18:05;97879.69;;;8.02;100.00
45621;BME280;31345;51.522;10.702;2023-03-25T06:20:37;97879.97;;;7.99;100.00
45621;BME280;31345;51.522;10.702;2023-03-25T06:23:10;97891.75;;;7.92;100.00
45621;BME280;31345;51.522;10.702;2023-03-25T06:25:37;97881.47;;;7.90;100.00
45621;BME280;31345;51.522;10.702;2023-03-25T06:28:10;97879.19;;;7.86;100.00
45621;BME280;31345;51.522;10.702;2023-03-25T06:30:42;97883.69;;;7.84;100.00
45621;BME280;31345;51.522;10.702;2023-03-25T06:33:12;97884.03;;;7.79;100.00
45621;BME280;31345;51.522;10.702;2023-03-25T06:35:47;97889.97;;;7.81;100.00
45621;BME280;31345;51.522;10.702;2023-03-25T06:38:23;97886.84;;;7.76;100.00
45621;BME280;31345;51.522;10.702;2023-03-25T06:41:03;97880.09;;;7.73;100.00
45621;BME280;31345;51.522;10.702;2023-03-25T06:43:32;97880.00;;;7.75;100.00
45621;BME280;31345;51.522;10.702;2023-03-25T06:46:23;97883.88;;;7.69;100.00
45621;BME280;31345;51.522;10.702;2023-03-25T06:49:10;97876.19;;;7.67;100.00
45621;BME280;31345;51.522;10.702;2023-03-25T06:51:38;97884.09;;;7.66;100.00
45621;BME280;31345;51.522;10.702;2023-03-25T06:54:05;97878.09;;;7.65;100.00
45621;BME280;31345;51.522;10.702;2023-03-25T06:56:38;97874.53;;;7.66;100.00
45621;BME280;31345;51.522;10.702;2023-03-25T06:59:10;97882.66;;;7.62;100.00
45621;BME280;31345;51.522;10.702;2023-03-25T07:01:38;97887.22;;;7.71;100.00
45621;BME280;31345;51.522;10.702;2023-03-25T07:04:12;97882.50;;;7.76;100.00
45621;BME280;31345;51.522;10.702;2023-03-25T07:06:41;97877.97;;;7.78;100.00
45621;BME280;31345;51.522;10.702;2023-03-25T07:09:13;97882.31;;;7.91;100.00
45621;BME280;31345;51.522;10.702;2023-03-25T07:11:42;97880.38;;;7.81;100.00
45621;BME280;31345;51.522;10.702;2023-03-25T07:14:15;97888.38;;;7.78;100.00
45621;BME280;31345;51.522;10.702;2023-03-25T07:16:48;97883.19;;;7.78;100.00
45621;BME280;31345;51.522;10.702;2023-03-25T07:19:22;97884.44;;;7.97;100.00
45621;BME280;31345;51.522;10.702;2023-03-25T07:21:54;97882.94;;;8.17;100.00
45621;BME280;31345;51.522;10.702;2023-03-25T07:24:22;97878.47;;;8.31;100.00
45621;BME280;31345;51.522;10.702;2023-03-25T07:26:49;97879.31;;;8.43;100.00
45621;BME280;31345;51.522;10.702;2023-03-25T07:29:26;97875.50;;;8.58;100.00
45621;BME280;31345;51.522;10.702;2023-03-25T07:31:58;97870.50;;;8.78;100.00
45621;BME280;31345;51.522;10.702;2023-03-25T07:34:32;97870.16;;;8.94;100.00
45621;BME280;31345;51.522;10.702;2023-03-25T07:37:04;97868.50;;;8.93;99.67
45621;BME280;31345;51.522;10.702;2023-03-25T07:39:38;97862.22;;;8.96;98.95
45621;BME280;31345;51.522;10.702;2023-03-25T07:42:07;97866.69;;;9.05;99.14
45621;BME280;31345;51.522;10.702;2023-03-25T07:45:03;97875.19;;;9.19;98.23
45621;BME280;31345;51.522;10.702;2023-03-25T07:47:38;97876.75;;;9.21;97.14
45621;BME280;31345;51.522;10.702;2023-03-25T07:50:08;97879.56;;;9.30;96.97
45621;BME280;31345;51.522;10.702;2023-03-25T07:52:38;97884.94;;;9.49;96.12
45621;BME280;31345;51.522;10.702;2023-03-25T07:55:11;97865.41;;;9.44;97.14
45621;BME280;31345;51.522;10.702;2023-03-25T07:57:39;97880.34;;;9.42;97.08
45621;BME280;31345;51.522;10.702;2023-03-25T08:00:08;97883.47;;;9.35;96.82
45621;BME280;31345;51.522;10.702;2023-03-25T08:02:39;97879.13;;;9.46;95.20
45621;BME280;31345;51.522;10.702;2023-03-25T08:05:14;97874.03;;;9.44;96.48
45621;BME280;31345;51.522;10.702;2023-03-25T08:07:51;97874.00;;;9.56;96.66
45621;BME280;31345;51.522;10.702;2023-03-25T08:10:24;97881.81;;;9.56;97.13
45621;BME280;31345;51.522;10.702;2023-03-25T08:12:56;97884.75;;;9.62;94.82
45621;BME280;31345;51.522;10.702;2023-03-25T08:15:29;97879.94;;;9.58;95.11
45621;BME280;31345;51.522;10.702;2023-03-25T08:18:02;97883.19;;;9.71;94.88
45621;BME280;31345;51.522;10.702;2023-03-25T08:20:38;97876.28;;;10.24;93.31
45621;BME280;31345;51.522;10.702;2023-03-25T08:23:11;97873.47;;;10.37;91.49
45621;BME280;31345;51.522;10.702;2023-03-25T08:25:49;97880.06;;;10.42;92.33
45621;BME280;31345;51.522;10.702;2023-03-25T08:28:19;97865.41;;;10.50;90.01
45621;BME280;31345;51.522;10.702;2023-03-25T08:30:53;97870.66;;;10.29;89.93
45621;BME280;31345;51.522;10.702;2023-03-25T08:33:26;97879.59;;;10.05;90.24
45621;BME280;31345;51.522;10.702;2023-03-25T08:36:00;97875.56;;;9.80;90.21
45621;BME280;31345;51.522;10.702;2023-03-25T08:38:28;97881.84;;;9.77;91.66
45621;BME280;31345;51.522;10.702;2023-03-25T08:41:02;97873.72;;;9.70;92.37
45621;BME280;31345;51.522;10.702;2023-03-25T08:43:34;97882.50;;;9.69;89.93
45621;BME280;31345;51.522;10.702;2023-03-25T08:46:02;97877.97;;;9.71;91.95
45621;BME280;31345;51.522;10.702;2023-03-25T08:48:30;97880.09;;;9.78;92.20
45621;BME280;31345;51.522;10.702;2023-03-25T08:51:04;97870.69;;;9.75;91.65
45621;BME280;31345;51.522;10.702;2023-03-25T08:53:32;97875.34;;;9.71;90.25
45621;BME280;31345;51.522;10.702;2023-03-25T08:56:00;97875.22;;;9.73;92.01
45621;BME280;31345;51.522;10.702;2023-03-25T08:58:33;97889.28;;;9.60;92.84
45621;BME280;31345;51.522;10.702;2023-03-25T09:01:06;97878.25;;;9.57;92.73
45621;BME280;31345;51.522;10.702;2023-03-25T09:03:34;97882.69;;;9.78;93.82
45621;BME280;31345;51.522;10.702;2023-03-25T09:06:09;97873.78;;;10.01;92.37
45621;BME280;31345;51.522;10.702;2023-03-25T09:08:41;97864.13;;;10.13;92.47
45621;BME280;31345;51.522;10.702;2023-03-25T09:11:09;97874.19;;;10.18;91.75
45621;BME280;31345;51.522;10.702;2023-03-25T09:13:42;97861.31;;;10.26;90.95
45621;BME280;31345;51.522;10.702;2023-03-25T09:16:14;97869.28;;;10.56;90.01
45621;BME280;31345;51.522;10.702;2023-03-25T09:18:47;97859.06;;;10.84;88.68
45621;BME280;31345;51.522;10.702;2023-03-25T09:21:16;97863.81;;;11.30;88.18
45621;BME280;31345;51.522;10.702;2023-03-25T09:23:43;97850.03;;;11.08;86.07
45621;BME280;31345;51.522;10.702;2023-03-25T09:26:16;97856.81;;;11.30;84.51
45621;BME280;31345;51.522;10.702;2023-03-25T09:28:43;97862.44;;;11.26;84.44
45621;BME280;31345;51.522;10.702;2023-03-25T09:31:16;97864.97;;;10.86;84.69
45621;BME280;31345;51.522;10.702;2023-03-25T09:33:43;97874.03;;;10.82;85.43
45621;BME280;31345;51.522;10.702;2023-03-25T09:36:11;97865.28;;;10.52;87.18
45621;BME280;31345;51.522;10.702;2023-03-25T09:38:40;97865.09;;;10.44;87.39
45621;BME280;31345;51.522;10.702;2023-03-25T09:41:24;97869.91;;;10.48;89.94
45621;BME280;31345;51.522;10.702;2023-03-25T09:44:03;97864.28;;;10.43;89.41
45621;BME280;31345;51.522;10.702;2023-03-25T09:46:37;97875.19;;;10.27;89.01
45621;BME280;31345;51.522;10.702;2023-03-25T09:49:13;97868.50;;;10.13;89.19
45621;BME280;31345;51.522;10.702;2023-03-25T09:51:43;97879.59;;;10.05;89.33
45621;BME280;31345;51.522;10.702;2023-03-25T09:54:21;97878.81;;;10.14;87.79
45621;BME280;31345;51.522;10.702;2023-03-25T09:56:52;97880.31;;;10.07;87.49
45621;BME280;31345;51.522;10.702;2023-03-25T09:59:35;97876.75;;;10.08;88.70
45621;BME280;31345;51.522;10.702;2023-03-25T10:02:13;97882.84;;;9.97;88.67
45621;BME280;31345;51.522;10.702;2023-03-25T10:04:58;97886.50;;;9.95;88.32
45621;BME280;31345;51.522;10.702;2023-03-25T10:07:46;97887.47;;;9.94;88.47
45621;BME280;31345;51.522;10.702;2023-03-25T10:10:25;97876.78;;;9.97;88.52
45621;BME280;31345;51.522;10.702;2023-03-25T10:13:02;97878.41;;;10.09;87.35
45621;BME280;31345;51.522;10.702;2023-03-25T10:15:41;97880.03;;;10.10;87.74
45621;BME280;31345;51.522;10.702;2023-03-25T10:18:36;97880.56;;;10.25;87.58
45621;BME280;31345;51.522;10.702;2023-03-25T10:21:14;97872.78;;;10.35;86.40
45621;BME280;31345;51.522;10.702;2023-03-25T10:23:48;97874.00;;;10.41;87.27
45621;BME280;31345;51.522;10.702;2023-03-25T10:26:30;97874.00;;;10.41;86.42
45621;BME280;31345;51.522;10.702;2023-03-25T10:29:03;97862.72;;;10.62;86.36
45621;BME280;31345;51.522;10.702;2023-03-25T10:31:39;97851.31;;;10.73;84.26
45621;BME280;31345;51.522;10.702;2023-03-25T10:34:17;97855.03;;;10.70;81.77
45621;BME280;31345;51.522;10.702;2023-03-25T10:36:52;97848.63;;;10.53;83.95
45621;BME280;31345;51.522;10.702;2023-03-25T10:39:30;97853.53;;;10.77;85.97
45621;BME280;31345;51.522;10.702;2023-03-25T10:42:16;97850.72;;;10.59;84.76
45621;BME280;31345;51.522;10.702;2023-03-25T10:44:46;97852.81;;;10.65;85.82
45621;BME280;31345;51.522;10.702;2023-03-25T10:47:17;97847.31;;;10.69;87.57
45621;BME280;31345;51.522;10.702;2023-03-25T10:49:47;97858.56;;;10.59;86.35
45621;BME280;31345;51.522;10.702;2023-03-25T10:52:20;97837.66;;;10.59;85.53
45621;BME280;31345;51.522;10.702;2023-03-25T10:54:50;97837.84;;;10.77;85.80
45621;BME280;31345;51.522;10.702;2023-03-25T10:57:22;97832.25;;;11.02;83.83
45621;BME280;31345;51.522;10.702;2023-03-25T11:00:02;97836.84;;;11.20;83.76
45621;BME280;31345;51.522;10.702;2023-03-25T11:02:33;97836.84;;;11.29;84.08
45621;BME280;31345;51.522;10.702;2023-03-25T11:05:06;97828.16;;;11.39;85.03
45621;BME280;31345;51.522;10.702;2023-03-25T11:07:36;97832.00;;;11.44;84.16
45621;BME280;31345;51.522;10.702;2023-03-25T11:10:15;97830.72;;;11.88;84.19
45621;BME280;31345;51.522;10.702;2023-03-25T11:12:44;97828.56;;;11.64;82.46
45621;BME280;31345;51.522;10.702;2023-03-25T11:15:20;97831.38;;;12.10;81.42
45621;BME280;31345;51.522;10.702;2023-03-25T11:17:55;97820.94;;;11.80;81.87
45621;BME280;31345;51.522;10.702;2023-03-25T11:20:35;97861.06;;;11.22;82.12
45621;BME280;31345;51.522;10.702;2023-03-25T11:23:05;97879.75;;;10.56;86.78
45621;BME280;31345;51.522;10.702;2023-03-25T11:25:39;97883.56;;;9.88;95.72
45621;BME280;31345;51.522;10.702;2023-03-25T11:28:18;97883.69;;;9.86;100.00
45621;BME280;31345;51.522;10.702;2023-03-25T11:31:08;97880.03;;;9.89;99.58
45621;BME280;31345;51.522;10.702;2023-03-25T11:33:44;97877.97;;;9.71;100.00
45621;BME280;31345;51.522;10.702;2023-03-25T11:36:23;97873.28;;;9.65;98.78
45621;BME280;31345;51.522;10.702;2023-03-25T11:38:58;97866.22;;;9.44;98.79
45621;BME280;31345;51.522;10.702;2023-03-25T11:41:33;97867.81;;;9.35;96.97
45621;BME280;31345;51.522;10.702;2023-03-25T11:44:19;97864.75;;;9.52;96.12
45621;BME280;31345;51.522;10.702;2023-03-25T11:46:55;97857.53;;;9.76;96.27
45621;BME280;31345;51.522;10.702;2023-03-25T11:49:29;97848.13;;;9.85;95.29
45621;BME280;31345;51.522;10.702;2023-03-25T11:52:05;97840.56;;;10.04;94.24
45621;BME280;31345;51.522;10.702;2023-03-25T11:54:39;97845.34;;;10.20;92.15
45621;BME280;31345;51.522;10.702;2023-03-25T11:57:12;97841.09;;;10.28;90.72
45621;BME280;31345;51.522;10.702;2023-03-25T11:59:44;97832.31;;;10.30;87.43
45621;BME280;31345;51.522;10.702;2023-03-25T12:02:20;97841.59;;;10.44;85.96
45621;BME280;31345;51.522;10.702;2023-03-25T12:04:57;97840.16;;;10.71;82.54
45621;BME280;31345;51.522;10.702;2023-03-25T12:07:27;97845.84;;;10.86;82.19
45621;BME280;31345;51.522;10.702;2023-03-25T12:09:55;97851.16;;;11.25;83.22
45621;BME280;31345;51.522;10.702;2023-03-25T12:12:34;97852.81;;;11.56;81.51
45621;BME280;31345;51.522;10.702;2023-03-25T12:15:20;97843.28;;;11.15;80.02
45621;BME280;31345;51.522;10.702;2023-03-25T12:17:56;97842.88;;;11.99;77.79
45621;BME280;31345;51.522;10.702;2023-03-25T12:20:38;97838.41;;;12.19;79.83
45621;BME280;31345;51.522;10.702;2023-03-25T12:23:18;97823.69;;;12.75;79.73
45621;BME280;31345;51.522;10.702;2023-03-25T12:25:53;97824.47;;;12.19;78.09
45621;BME280;31345;51.522;10.702;2023-03-25T12:29:00;97808.34;;;12.24;79.67
45621;BME280;31345;51.522;10.702;2023-03-25T12:31:48;97808.56;;;11.82;78.05
45621;BME280;31345;51.522;10.702;2023-03-25T12:34:31;97816.59;;;11.41;76.10
45621;BME280;31345;51.522;10.702;2023-03-25T12:37:10;97810.38;;;11.42;76.86
45621;BME280;31345;51.522;10.702;2023-03-25T12:39:51;97815.31;;;11.75;80.12
45621;BME280;31345;51.522;10.702;2023-03-25T12:42:34;97803.69;;;12.07;77.44
45621;BME280;31345;51.522;10.702;2023-03-25T12:45:18;97804.28;;;11.91;76.50
45621;BME280;31345;51.522;10.702;2023-03-25T12:47:58;97803.97;;;12.04;76.18
45621;BME280;31345;51.522;10.702;2023-03-25T12:50:41;97808.56;;;11.73;75.70
45621;BME280;31345;51.522;10.702;2023-03-25T12:53:30;97821.69;;;11.43;75.18
45621;BME280;31345;51.522;10.702;2023-03-25T12:56:20;97825.53;;;11.09;78.68
45621;BME280;31345;51.522;10.702;2023-03-25T13:02:08;97825.09;;;11.04;81.27
45621;BME280;31345;51.522;10.702;2023-03-25T13:04:51;97822.66;;;11.42;80.30
45621;BME280;31345;51.522;10.702;2023-03-25T13:07:31;97824.03;;;11.26;80.22
45621;BME280;31345;51.522;10.702;2023-03-25T13:10:05;97823.88;;;11.57;83.48
45621;BME280;31345;51.522;10.702;2023-03-25T13:12:47;97830.59;;;12.10;82.56
45621;BME280;31345;51.522;10.702;2023-03-25T13:15:23;97818.88;;;12.04;79.23
45621;BME280;31345;51.522;10.702;2023-03-25T13:18:00;97816.53;;;12.01;80.33
45621;BME280;31345;51.522;10.702;2023-03-25T13:20:34;97807.84;;;12.00;81.33
45621;BME280;31345;51.522;10.702;2023-03-25T13:23:05;97805.78;;;11.94;80.21
45621;BME280;31345;51.522;10.702;2023-03-25T13:25:45;97797.38;;;12.38;80.00
45621;BME280;31345;51.522;10.702;2023-03-25T13:28:17;97796.34;;;12.11;80.51
45621;BME280;31345;51.522;10.702;2023-03-25T13:30:54;97787.59;;;11.92;77.48
45621;BME280;31345;51.522;10.702;2023-03-25T13:33:24;97791.31;;;12.00;77.03